createdAt,value
2018-01-13T00:00:50.100Z,99.99
2018-01-13T00:01:50.091Z,99.99
2018-01-13T00:02:50.083Z,99.99
2018-01-13T00:03:50.074Z,99.99
2018-01-13T00:04:50.062Z,99.99
2018-01-13T00:05:50.054Z,99.99
2018-01-13T00:06:50.047Z,99.99
2018-01-13T00:07:50.034Z,99.99
2018-01-13T00:08:50.028Z,99.99
2018-01-13T00:09:50.015Z,99.99
2018-01-13T00:10:50.009Z,99.99
2018-01-13T00:11:49.992Z,99.99
2018-01-13T00:12:49.988Z,99.99
2018-01-13T00:13:49.976Z,99.99
2018-01-13T00:14:49.967Z,99.99
2018-01-13T00:15:49.957Z,99.99
2018-01-13T00:16:49.947Z,99.99
2018-01-13T00:17:49.933Z,99.99
2018-01-13T00:18:49.933Z,99.99
2018-01-13T00:19:49.918Z,99.99
2018-01-13T00:20:49.909Z,99.99
2018-01-13T00:21:49.903Z,99.99
2018-01-13T00:22:49.890Z,99.99
2018-01-13T00:23:49.878Z,99.99
2018-01-13T00:24:49.867Z,99.99
2018-01-13T00:25:49.861Z,99.99
2018-01-13T00:26:49.853Z,99.99
2018-01-13T00:27:49.841Z,99.99
2018-01-13T00:28:49.849Z,99.99
2018-01-13T00:29:49.821Z,99.99
2018-01-13T00:30:49.811Z,99.99
2018-01-13T00:31:49.803Z,99.99
2018-01-13T00:32:49.793Z,99.99
2018-01-13T00:33:49.785Z,99.99
2018-01-13T00:34:49.775Z,99.99
2018-01-13T00:35:49.763Z,99.99
2018-01-13T00:36:49.755Z,99.99
2018-01-13T00:37:49.743Z,99.99
2018-01-13T00:38:49.735Z,99.99
2018-01-13T00:39:49.781Z,99.99
2018-01-13T00:40:49.715Z,99.99
2018-01-13T00:41:49.706Z,99.99
2018-01-13T00:42:49.695Z,99.99
2018-01-13T00:43:49.681Z,99.99
2018-01-13T00:44:49.678Z,99.99
2018-01-13T00:45:49.666Z,99.99
2018-01-13T00:46:49.663Z,99.99
2018-01-13T00:47:49.650Z,99.99
2018-01-13T00:48:49.636Z,99.99
2018-01-13T00:49:49.628Z,99.99
2018-01-13T00:50:49.619Z,99.99
2018-01-13T00:51:49.608Z,99.99
2018-01-13T00:52:49.599Z,99.99
2018-01-13T00:53:49.590Z,99.99
2018-01-13T00:54:49.581Z,99.99
2018-01-13T00:55:49.575Z,99.99
2018-01-13T00:56:49.557Z,99.99
2018-01-13T00:57:49.551Z,99.99
2018-01-13T00:58:49.540Z,99.99
2018-01-13T00:59:49.530Z,99.99
2018-01-13T01:00:49.522Z,99.99
2018-01-13T01:01:49.510Z,99.99
2018-01-13T01:02:49.502Z,99.99
2018-01-13T01:03:49.539Z,99.99
2018-01-13T01:04:49.488Z,99.99
2018-01-13T01:05:49.473Z,99.99
2018-01-13T01:06:49.462Z,99.99
2018-01-13T01:07:49.451Z,99.99
2018-01-13T01:08:49.442Z,99.99
2018-01-13T01:09:49.435Z,99.99
2018-01-13T01:10:49.425Z,99.99
2018-01-13T01:11:49.438Z,99.99
2018-01-13T01:12:49.404Z,99.99
2018-01-13T01:13:49.395Z,99.99
2018-01-13T01:14:49.386Z,99.99
2018-01-13T01:15:49.374Z,99.99
2018-01-13T01:16:49.368Z,99.99
2018-01-13T01:17:49.356Z,99.99
2018-01-13T01:18:49.347Z,99.99
2018-01-13T01:19:49.337Z,99.99
2018-01-13T01:20:49.325Z,99.99
2018-01-13T01:21:49.316Z,99.99
2018-01-13T01:22:49.307Z,99.99
2018-01-13T01:23:49.297Z,99.99
2018-01-13T01:24:49.295Z,99.99
2018-01-13T01:25:49.279Z,99.99
2018-01-13T01:26:49.266Z,99.99
2018-01-13T01:27:49.260Z,99.99
2018-01-13T01:28:49.254Z,99.99
2018-01-13T01:29:49.241Z,99.99
2018-01-13T01:30:49.230Z,99.99
2018-01-13T01:31:49.221Z,99.99
2018-01-13T01:32:49.210Z,99.99
2018-01-13T01:33:49.200Z,99.99
2018-01-13T01:34:49.190Z,99.99
2018-01-13T01:35:49.179Z,99.99
2018-01-13T01:36:49.177Z,99.99
2018-01-13T01:37:49.161Z,99.99
2018-01-13T01:38:49.152Z,99.99
2018-01-13T01:39:49.142Z,99.99
2018-01-13T01:40:49.133Z,99.99
2018-01-13T01:41:49.121Z,99.99
2018-01-13T01:42:49.117Z,99.99
2018-01-13T01:43:49.105Z,99.99
2018-01-13T01:44:49.093Z,99.99
2018-01-13T01:45:49.082Z,99.99
2018-01-13T01:46:49.073Z,99.99
2018-01-13T01:47:49.059Z,99.99
2018-01-13T01:48:49.056Z,99.99
2018-01-13T01:49:49.043Z,99.99
2018-01-13T01:50:49.036Z,99.99
2018-01-13T01:51:49.023Z,99.99
2018-01-13T01:52:49.014Z,99.99
2018-01-13T01:53:49.012Z,99.99
2018-01-13T01:54:48.996Z,99.99
2018-01-13T01:55:48.986Z,99.99
2018-01-13T01:56:48.977Z,99.99
2018-01-13T01:57:48.963Z,99.99
2018-01-13T01:58:48.954Z,99.99
2018-01-13T01:59:48.946Z,99.99
2018-01-13T02:00:48.936Z,99.99
2018-01-13T02:01:48.928Z,99.99
2018-01-13T02:02:48.918Z,99.99
2018-01-13T02:03:48.908Z,99.99
2018-01-13T02:04:48.898Z,99.99
2018-01-13T02:05:48.887Z,99.99
2018-01-13T02:06:48.878Z,99.99
2018-01-13T02:07:48.872Z,99.99
2018-01-13T02:08:48.879Z,99.99
2018-01-13T02:09:48.854Z,99.99
2018-01-13T02:10:48.840Z,99.99
2018-01-13T02:11:48.829Z,99.99
2018-01-13T02:12:48.820Z,99.99
2018-01-13T02:13:48.811Z,99.99
2018-01-13T02:14:48.803Z,99.99
2018-01-13T02:15:48.789Z,99.99
2018-01-13T02:16:48.779Z,99.99
2018-01-13T02:17:48.769Z,99.99
2018-01-13T02:18:48.761Z,99.99
2018-01-13T02:19:48.750Z,99.99
2018-01-13T02:20:48.744Z,99.99
2018-01-13T02:21:48.731Z,99.99
2018-01-13T02:22:48.720Z,99.99
2018-01-13T02:23:48.726Z,99.99
2018-01-13T02:24:48.702Z,99.99
2018-01-13T02:25:48.701Z,99.99
2018-01-13T02:26:48.684Z,99.99
2018-01-13T02:27:48.672Z,99.99
2018-01-13T02:28:48.659Z,99.99
2018-01-13T02:29:48.648Z,99.99
2018-01-13T02:30:48.642Z,99.99
2018-01-13T02:31:48.632Z,99.99
2018-01-13T02:32:48.622Z,99.99
2018-01-13T02:33:48.612Z,99.99
2018-01-13T02:34:48.601Z,99.99
2018-01-13T02:35:48.593Z,99.99
2018-01-13T02:36:48.582Z,99.99
2018-01-13T02:37:48.570Z,99.99
2018-01-13T02:38:48.569Z,99.99
2018-01-13T02:39:48.556Z,99.99
2018-01-13T02:40:48.537Z,99.99
2018-01-13T02:41:48.533Z,99.99
2018-01-13T02:42:48.523Z,99.99
2018-01-13T02:43:48.517Z,99.99
2018-01-13T02:44:48.510Z,99.99
2018-01-13T02:45:48.491Z,99.99
2018-01-13T02:46:48.485Z,99.99
2018-01-13T02:47:48.476Z,99.99
2018-01-13T02:48:48.462Z,99.99
2018-01-13T02:49:48.453Z,99.99
2018-01-13T02:50:48.443Z,99.99
2018-01-13T02:51:48.432Z,99.99
2018-01-13T02:52:48.423Z,99.99
2018-01-13T02:53:48.414Z,99.99
2018-01-13T02:54:48.401Z,99.99
2018-01-13T02:55:48.393Z,99.99
2018-01-13T02:56:48.385Z,99.99
2018-01-13T02:57:48.376Z,99.99
2018-01-13T02:58:48.365Z,99.99
2018-01-13T02:59:48.351Z,99.99
2018-01-13T03:00:48.344Z,99.99
2018-01-13T03:01:48.334Z,99.99
2018-01-13T03:02:48.323Z,99.99
2018-01-13T03:03:48.318Z,99.99
2018-01-13T03:04:48.304Z,99.99
2018-01-13T03:05:48.291Z,99.99
2018-01-13T03:06:48.283Z,99.99
2018-01-13T03:07:48.271Z,99.99
2018-01-13T03:08:48.263Z,99.99
2018-01-13T03:09:48.254Z,99.99
2018-01-13T03:10:48.248Z,99.99
2018-01-13T03:11:48.230Z,99.99
2018-01-13T03:12:48.222Z,99.99
2018-01-13T03:13:48.215Z,99.99
2018-01-13T03:14:48.208Z,99.99
2018-01-13T03:15:48.204Z,99.99
2018-01-13T03:16:48.185Z,99.99
2018-01-13T03:17:48.174Z,99.99
2018-01-13T03:18:48.165Z,99.99
2018-01-13T03:19:48.155Z,99.99
2018-01-13T03:20:48.145Z,99.99
2018-01-13T03:21:48.141Z,99.99
2018-01-13T03:22:48.159Z,99.99
2018-01-13T03:23:48.112Z,99.99
2018-01-13T03:24:48.105Z,99.99
2018-01-13T03:25:48.097Z,99.99
2018-01-13T03:26:48.086Z,99.99
2018-01-13T03:27:48.078Z,99.99
2018-01-13T03:28:48.066Z,99.99
2018-01-13T03:29:48.057Z,99.99
2018-01-13T03:30:48.045Z,99.99
2018-01-13T03:31:48.034Z,99.99
2018-01-13T03:32:48.027Z,99.99
2018-01-13T03:33:48.037Z,99.99
2018-01-13T03:34:48.005Z,99.99
2018-01-13T03:35:47.995Z,99.99
2018-01-13T03:36:47.984Z,99.99
2018-01-13T03:37:47.976Z,99.99
2018-01-13T03:38:47.966Z,99.99
2018-01-13T03:39:47.954Z,99.99
2018-01-13T03:40:47.949Z,99.99
2018-01-13T03:41:47.936Z,99.99
2018-01-13T03:42:47.928Z,99.99
2018-01-13T03:43:47.916Z,99.99
2018-01-13T03:44:47.909Z,99.99
2018-01-13T03:45:47.897Z,99.99
2018-01-13T03:46:47.886Z,99.99
2018-01-13T03:47:47.879Z,99.99
2018-01-13T03:48:47.862Z,99.99
2018-01-13T03:49:47.856Z,99.99
2018-01-13T03:50:47.846Z,99.99
2018-01-13T03:51:47.836Z,99.99
2018-01-13T03:52:47.827Z,99.99
2018-01-13T03:53:47.816Z,99.99
2018-01-13T03:54:47.807Z,99.99
2018-01-13T03:55:47.797Z,99.99
2018-01-13T03:56:47.785Z,99.99
2018-01-13T03:57:47.778Z,99.99
2018-01-13T03:58:47.772Z,99.99
2018-01-13T03:59:47.757Z,99.99
2018-01-13T04:00:47.750Z,99.99
2018-01-13T04:01:47.739Z,99.99
2018-01-13T04:02:47.725Z,99.99
2018-01-13T04:03:47.719Z,99.99
2018-01-13T04:04:47.711Z,99.99
2018-01-13T04:05:47.697Z,99.99
2018-01-13T04:06:47.687Z,99.99
2018-01-13T04:07:47.677Z,99.99
2018-01-13T04:08:47.666Z,99.99
2018-01-13T04:09:47.656Z,99.99
2018-01-13T04:10:47.649Z,99.99
2018-01-13T04:11:47.635Z,99.99
2018-01-13T04:12:47.625Z,99.99
2018-01-13T04:13:47.616Z,99.99
2018-01-13T04:14:47.607Z,99.99
2018-01-13T04:15:47.597Z,99.99
2018-01-13T04:16:47.587Z,99.99
2018-01-13T04:17:47.576Z,99.99
2018-01-13T04:18:47.568Z,99.99
2018-01-13T04:19:47.554Z,99.99
2018-01-13T04:20:47.545Z,99.99
2018-01-13T04:21:47.536Z,99.99
2018-01-13T04:22:47.525Z,99.99
2018-01-13T04:23:47.522Z,99.99
2018-01-13T04:24:47.505Z,99.99
2018-01-13T04:25:47.494Z,99.99
2018-01-13T04:26:47.482Z,99.99
2018-01-13T04:27:47.475Z,99.99
2018-01-13T04:28:47.464Z,99.99
2018-01-13T04:29:47.456Z,99.85
2018-01-13T04:30:47.445Z,99.99
2018-01-13T04:31:47.433Z,99.99
2018-01-13T04:32:47.426Z,99.99
2018-01-13T04:33:47.415Z,99.99
2018-01-13T04:34:47.405Z,99.99
2018-01-13T04:35:47.394Z,99.99
2018-01-13T04:36:47.385Z,99.99
2018-01-13T04:37:47.373Z,99.99
2018-01-13T04:38:47.365Z,99.95
2018-01-13T04:39:47.354Z,99.99
2018-01-13T04:40:47.345Z,99.85
2018-01-13T04:41:47.335Z,99.99
2018-01-13T04:42:47.324Z,99.95
2018-01-13T04:43:47.311Z,99.76
2018-01-13T04:44:47.308Z,99.85
2018-01-13T04:45:47.292Z,99.99
2018-01-13T04:46:47.285Z,99.76
2018-01-13T04:47:47.275Z,99.09
2018-01-13T04:48:47.265Z,99.19
2018-01-13T04:49:47.254Z,99.66
2018-01-13T04:50:47.245Z,99.57
2018-01-13T04:51:47.232Z,99.38
2018-01-13T04:52:47.227Z,99.09
2018-01-13T04:53:47.217Z,99.57
2018-01-13T04:54:47.207Z,99.66
2018-01-13T04:55:47.207Z,99.38
2018-01-13T04:56:47.186Z,99.66
2018-01-13T04:57:47.176Z,99.76
2018-01-13T04:58:47.166Z,99.47
2018-01-13T04:59:47.156Z,99.09
2018-01-13T05:00:47.145Z,99.38
2018-01-13T05:01:47.134Z,99.38
2018-01-13T05:02:47.125Z,99.38
2018-01-13T05:03:47.114Z,99.19
2018-01-13T05:04:47.103Z,99.38
2018-01-13T05:05:47.097Z,99.47
2018-01-13T05:06:47.086Z,99.66
2018-01-13T05:07:47.075Z,99.38
2018-01-13T05:08:47.063Z,99.19
2018-01-13T05:09:47.054Z,99.28
2018-01-13T05:10:47.044Z,99.09
2018-01-13T05:11:47.033Z,99.09
2018-01-13T05:12:47.023Z,99.28
2018-01-13T05:13:47.014Z,99.38
2018-01-13T05:14:47.003Z,99.57
2018-01-13T05:15:46.993Z,99.24
2018-01-13T05:16:46.984Z,99.38
2018-01-13T05:17:46.976Z,98.71
2018-01-13T05:18:46.964Z,98.81
2018-01-13T05:19:46.954Z,98.71
2018-01-13T05:20:46.943Z,98.90
2018-01-13T05:21:46.934Z,98.62
2018-01-13T05:22:46.923Z,99.05
2018-01-13T05:23:46.913Z,98.96
2018-01-13T05:24:46.906Z,99.24
2018-01-13T05:25:46.897Z,98.77
2018-01-13T05:26:46.881Z,98.71
2018-01-13T05:27:46.878Z,98.67
2018-01-13T05:28:46.868Z,98.62
2018-01-13T05:29:46.856Z,98.71
2018-01-13T05:30:46.846Z,98.81
2018-01-13T05:31:46.834Z,98.81
2018-01-13T05:32:46.821Z,98.71
2018-01-13T05:33:46.818Z,98.67
2018-01-13T05:34:46.807Z,98.62
2018-01-13T05:35:46.796Z,98.43
2018-01-13T05:36:46.789Z,98.43
2018-01-13T05:37:46.777Z,98.86
2018-01-13T05:38:46.766Z,98.81
2018-01-13T05:39:46.754Z,98.81
2018-01-13T05:40:46.746Z,98.43
2018-01-13T05:41:46.735Z,98.67
2018-01-13T05:42:46.725Z,98.24
2018-01-13T05:43:46.716Z,98.58
2018-01-13T05:44:46.708Z,98.67
2018-01-13T05:45:46.696Z,98.20
2018-01-13T05:46:46.693Z,97.72
2018-01-13T05:47:46.678Z,98.14
2018-01-13T05:48:46.665Z,98.10
2018-01-13T05:49:46.656Z,98.29
2018-01-13T05:50:46.645Z,98.29
2018-01-13T05:51:46.635Z,98.39
2018-01-13T05:52:46.627Z,98.67
2018-01-13T05:53:46.616Z,98.20
2018-01-13T05:54:46.612Z,98.20
2018-01-13T05:55:46.596Z,97.34
2018-01-13T05:56:46.588Z,97.44
2018-01-13T05:57:46.575Z,97.34
2018-01-13T05:58:46.569Z,97.16
2018-01-13T05:59:46.558Z,97.44
2018-01-13T06:00:46.551Z,96.69
2018-01-13T06:01:46.547Z,96.69
2018-01-13T06:02:46.529Z,96.88
2018-01-13T06:03:46.522Z,96.88
2018-01-13T06:04:46.508Z,96.21
2018-01-13T06:05:46.498Z,95.93
2018-01-13T06:06:46.497Z,96.59
2018-01-13T06:07:46.477Z,96.50
2018-01-13T06:08:46.468Z,96.50
2018-01-13T06:09:46.457Z,96.31
2018-01-13T06:10:47.202Z,96.40
2018-01-13T06:11:46.455Z,96.50
2018-01-13T06:12:46.430Z,96.26
2018-01-13T06:13:46.428Z,96.12
2018-01-13T06:14:46.410Z,95.88
2018-01-13T06:15:46.401Z,96.12
2018-01-13T06:16:46.396Z,96.26
2018-01-13T06:17:46.380Z,96.54
2018-01-13T06:18:46.371Z,96.69
2018-01-13T06:19:46.364Z,96.31
2018-01-13T06:20:46.348Z,96.40
2018-01-13T06:21:46.341Z,96.40
2018-01-13T06:22:46.331Z,96.50
2018-01-13T06:23:46.321Z,96.97
2018-01-13T06:24:46.310Z,96.54
2018-01-13T06:25:46.300Z,96.88
2018-01-13T06:26:46.297Z,95.88
2018-01-13T06:27:46.281Z,96.02
2018-01-13T06:28:46.271Z,96.88
2018-01-13T06:29:46.263Z,96.12
2018-01-13T06:30:46.249Z,96.02
2018-01-13T06:31:46.242Z,95.69
2018-01-13T06:32:46.238Z,95.74
2018-01-13T06:33:46.221Z,96.12
2018-01-13T06:34:46.210Z,95.97
2018-01-13T06:35:46.205Z,96.88
2018-01-13T06:36:46.192Z,95.93
2018-01-13T06:37:46.183Z,95.40
2018-01-13T06:38:46.176Z,95.88
2018-01-13T06:39:46.162Z,95.69
2018-01-13T06:40:46.151Z,96.12
2018-01-13T06:41:46.142Z,96.45
2018-01-13T06:42:46.133Z,96.02
2018-01-13T06:43:46.125Z,96.02
2018-01-13T06:44:46.111Z,95.55
2018-01-13T06:45:46.106Z,95.03
2018-01-13T06:46:46.144Z,95.03
2018-01-13T06:47:46.083Z,95.69
2018-01-13T06:48:46.076Z,95.64
2018-01-13T06:49:46.064Z,95.40
2018-01-13T06:50:46.059Z,95.45
2018-01-13T06:51:46.044Z,94.93
2018-01-13T06:52:46.032Z,95.36
2018-01-13T06:53:46.025Z,94.98
2018-01-13T06:54:46.016Z,95.17
2018-01-13T06:55:46.004Z,95.45
2018-01-13T06:56:45.996Z,95.17
2018-01-13T06:57:45.984Z,94.84
2018-01-13T06:58:45.977Z,94.70
2018-01-13T06:59:45.967Z,94.65
2018-01-13T07:00:45.957Z,94.08
2018-01-13T07:01:45.946Z,94.65
2018-01-13T07:02:45.943Z,94.79
2018-01-13T07:03:45.928Z,94.84
2018-01-13T07:04:45.919Z,94.65
2018-01-13T07:05:45.903Z,95.12
2018-01-13T07:06:45.896Z,95.17
2018-01-13T07:07:45.885Z,95.12
2018-01-13T07:08:45.875Z,94.37
2018-01-13T07:09:45.865Z,94.56
2018-01-13T07:10:45.859Z,94.27
2018-01-13T07:11:45.845Z,93.99
2018-01-13T07:12:45.835Z,94.37
2018-01-13T07:13:45.828Z,94.27
2018-01-13T07:14:45.817Z,94.70
2018-01-13T07:15:45.806Z,94.46
2018-01-13T07:16:45.796Z,94.37
2018-01-13T07:17:45.786Z,93.70
2018-01-13T07:18:45.779Z,93.47
2018-01-13T07:19:45.766Z,93.56
2018-01-13T07:20:45.756Z,93.66
2018-01-13T07:21:45.755Z,93.66
2018-01-13T07:22:45.737Z,93.23
2018-01-13T07:23:45.726Z,93.28
2018-01-13T07:24:45.718Z,93.70
2018-01-13T07:25:45.706Z,93.99
2018-01-13T07:26:45.702Z,93.61
2018-01-13T07:27:45.694Z,93.51
2018-01-13T07:28:45.677Z,93.99
2018-01-13T07:29:45.672Z,93.32
2018-01-13T07:30:45.659Z,93.32
2018-01-13T07:31:45.648Z,93.61
2018-01-13T07:32:45.640Z,93.61
2018-01-13T07:33:45.632Z,93.51
2018-01-13T07:34:45.621Z,93.04
2018-01-13T07:35:45.607Z,93.04
2018-01-13T07:36:45.599Z,92.66
2018-01-13T07:37:45.589Z,92.94
2018-01-13T07:38:45.576Z,92.76
2018-01-13T07:39:45.568Z,92.66
2018-01-13T07:40:45.561Z,92.38
2018-01-13T07:41:45.548Z,92.29
2018-01-13T07:42:45.542Z,91.62
2018-01-13T07:43:45.528Z,91.96
2018-01-13T07:44:45.518Z,91.58
2018-01-13T07:45:45.510Z,92.10
2018-01-13T07:46:45.498Z,91.72
2018-01-13T07:47:45.502Z,91.58
2018-01-13T07:48:45.477Z,92.66
2018-01-13T07:49:45.467Z,92.19
2018-01-13T07:50:45.459Z,91.53
2018-01-13T07:51:45.450Z,92.10
2018-01-13T07:52:45.442Z,92.85
2018-01-13T07:53:45.433Z,92.66
2018-01-13T07:54:45.418Z,91.53
2018-01-13T07:55:45.408Z,91.24
2018-01-13T07:56:45.401Z,91.81
2018-01-13T07:57:45.391Z,91.43
2018-01-13T07:58:45.390Z,90.39
2018-01-13T07:59:45.373Z,90.68
2018-01-13T08:00:45.360Z,90.77
2018-01-13T08:01:45.350Z,90.77
2018-01-13T08:02:45.345Z,90.58
2018-01-13T08:03:45.330Z,90.30
2018-01-13T08:04:45.326Z,89.83
2018-01-13T08:05:45.312Z,90.20
2018-01-13T08:06:45.301Z,89.92
2018-01-13T08:07:45.293Z,90.11
2018-01-13T08:08:45.302Z,90.01
2018-01-13T08:09:45.272Z,90.39
2018-01-13T08:10:45.264Z,90.20
2018-01-13T08:11:45.249Z,90.30
2018-01-13T08:12:45.240Z,90.30
2018-01-13T08:13:45.229Z,90.01
2018-01-13T08:14:45.222Z,90.06
2018-01-13T08:15:45.215Z,89.92
2018-01-13T08:16:45.199Z,90.01
2018-01-13T08:17:45.194Z,90.30
2018-01-13T08:18:45.182Z,89.92
2018-01-13T08:19:45.171Z,90.49
2018-01-13T08:20:45.162Z,90.01
2018-01-13T08:21:45.154Z,89.07
2018-01-13T08:22:45.143Z,88.88
2018-01-13T08:23:45.138Z,88.88
2018-01-13T08:24:45.122Z,89.26
2018-01-13T08:25:45.110Z,89.26
2018-01-13T08:26:45.106Z,89.64
2018-01-13T08:27:45.090Z,89.36
2018-01-13T08:28:45.083Z,88.98
2018-01-13T08:29:45.074Z,89.07
2018-01-13T08:30:45.063Z,89.54
2018-01-13T08:31:45.054Z,89.73
2018-01-13T08:32:45.041Z,89.45
2018-01-13T08:33:45.075Z,89.64
2018-01-13T08:34:45.026Z,90.30
2018-01-13T08:35:45.014Z,90.30
2018-01-13T08:36:45.005Z,89.83
2018-01-13T08:37:44.995Z,90.58
2018-01-13T08:38:44.984Z,89.17
2018-01-13T08:39:44.972Z,89.64
2018-01-13T08:40:44.962Z,89.83
2018-01-13T08:41:44.961Z,89.54
2018-01-13T08:42:44.949Z,89.26
2018-01-13T08:43:44.931Z,88.88
2018-01-13T08:44:44.924Z,89.17
2018-01-13T08:45:44.916Z,89.26
2018-01-13T08:46:44.901Z,89.54
2018-01-13T08:47:44.899Z,89.07
2018-01-13T08:48:44.886Z,89.36
2018-01-13T08:49:44.874Z,89.36
2018-01-13T08:50:44.864Z,89.73
2018-01-13T08:51:44.852Z,89.54
2018-01-13T08:52:44.843Z,89.26
2018-01-13T08:53:44.836Z,89.36
2018-01-13T08:54:44.823Z,89.26
2018-01-13T08:55:44.814Z,89.26
2018-01-13T08:56:44.803Z,89.17
2018-01-13T08:57:44.794Z,89.17
2018-01-13T08:58:44.784Z,89.36
2018-01-13T08:59:44.772Z,89.17
2018-01-13T09:00:44.761Z,89.26
2018-01-13T09:01:44.755Z,89.54
2018-01-13T09:02:44.742Z,89.64
2018-01-13T09:03:44.732Z,88.79
2018-01-13T09:04:44.725Z,88.79
2018-01-13T09:05:44.711Z,88.60
2018-01-13T09:06:44.701Z,88.79
2018-01-13T09:07:44.694Z,88.69
2018-01-13T09:08:44.678Z,88.60
2018-01-13T09:09:44.673Z,88.79
2018-01-13T09:10:44.661Z,88.79
2018-01-13T09:11:44.656Z,88.69
2018-01-13T09:12:44.639Z,88.69
2018-01-13T09:13:44.629Z,88.60
2018-01-13T09:14:44.620Z,88.69
2018-01-13T09:15:44.609Z,88.50
2018-01-13T09:16:44.597Z,88.69
2018-01-13T09:17:44.584Z,88.69
2018-01-13T09:18:44.584Z,88.69
2018-01-13T09:19:44.568Z,88.60
2018-01-13T09:20:44.557Z,88.88
2018-01-13T09:21:44.560Z,88.50
2018-01-13T09:22:44.538Z,88.88
2018-01-13T09:23:44.527Z,88.60
2018-01-13T09:24:44.519Z,88.88
2018-01-13T09:25:44.506Z,88.98
2018-01-13T09:26:44.500Z,88.88
2018-01-13T09:27:44.491Z,88.60
2018-01-13T09:28:44.475Z,88.69
2018-01-13T09:29:44.464Z,88.41
2018-01-13T09:30:44.452Z,88.31
2018-01-13T09:31:44.442Z,88.31
2018-01-13T09:32:44.454Z,88.50
2018-01-13T09:33:44.423Z,88.98
2018-01-13T09:34:44.412Z,88.60
2018-01-13T09:35:44.402Z,87.93
2018-01-13T09:36:44.391Z,88.50
2018-01-13T09:37:44.383Z,88.22
2018-01-13T09:38:44.373Z,88.12
2018-01-13T09:39:44.360Z,88.12
2018-01-13T09:40:44.350Z,88.41
2018-01-13T09:41:44.341Z,87.93
2018-01-13T09:42:44.330Z,87.74
2018-01-13T09:43:44.319Z,86.71
2018-01-13T09:44:44.308Z,86.99
2018-01-13T09:45:44.323Z,86.85
2018-01-13T09:46:44.293Z,85.85
2018-01-13T09:47:44.279Z,85.99
2018-01-13T09:48:44.268Z,86.56
2018-01-13T09:49:44.273Z,85.66
2018-01-13T09:50:44.250Z,84.72
2018-01-13T09:51:44.239Z,84.91
2018-01-13T09:52:44.234Z,85.10
2018-01-13T09:53:44.219Z,85.61
2018-01-13T09:54:44.208Z,85.19
2018-01-13T09:55:44.200Z,84.77
2018-01-13T09:56:44.185Z,84.77
2018-01-13T09:57:44.180Z,85.99
2018-01-13T09:58:44.172Z,85.80
2018-01-13T09:59:44.160Z,84.95
2018-01-13T10:00:44.151Z,84.77
2018-01-13T10:01:44.142Z,85.05
2018-01-13T10:02:44.132Z,84.34
2018-01-13T10:03:44.189Z,84.63
2018-01-13T10:04:44.114Z,84.91
2018-01-13T10:05:44.105Z,85.19
2018-01-13T10:06:44.095Z,85.95
2018-01-13T10:07:44.099Z,84.72
2018-01-13T10:08:44.079Z,84.91
2018-01-13T10:09:44.064Z,84.81
2018-01-13T10:10:44.054Z,85.38
2018-01-13T10:11:44.043Z,85.38
2018-01-13T10:12:44.034Z,84.34
2018-01-13T10:13:44.020Z,84.25
2018-01-13T10:14:44.015Z,85.00
2018-01-13T10:15:44.005Z,85.10
2018-01-13T10:16:43.996Z,84.81
2018-01-13T10:17:43.981Z,85.66
2018-01-13T10:18:43.974Z,85.47
2018-01-13T10:19:43.963Z,85.19
2018-01-13T10:20:43.954Z,85.61
2018-01-13T10:21:43.941Z,84.44
2018-01-13T10:22:43.935Z,84.25
2018-01-13T10:23:43.922Z,85.00
2018-01-13T10:24:43.913Z,85.24
2018-01-13T10:25:43.903Z,84.53
2018-01-13T10:26:43.893Z,83.87
2018-01-13T10:27:43.881Z,84.25
2018-01-13T10:28:43.874Z,83.97
2018-01-13T10:29:43.873Z,84.25
2018-01-13T10:30:43.853Z,84.06
2018-01-13T10:31:43.843Z,84.63
2018-01-13T10:32:43.840Z,84.91
2018-01-13T10:33:43.825Z,85.10
2018-01-13T10:34:43.820Z,84.25
2018-01-13T10:35:43.805Z,84.06
2018-01-13T10:36:43.791Z,84.81
2018-01-13T10:37:43.792Z,83.97
2018-01-13T10:38:43.778Z,83.97
2018-01-13T10:39:43.765Z,84.44
2018-01-13T10:40:43.755Z,84.06
2018-01-13T10:41:43.742Z,84.25
2018-01-13T10:42:43.729Z,84.72
2018-01-13T10:43:43.728Z,83.97
2018-01-13T10:44:43.727Z,84.06
2018-01-13T10:45:43.705Z,84.34
2018-01-13T10:46:43.704Z,83.78
2018-01-13T10:47:43.685Z,84.06
2018-01-13T10:48:43.675Z,84.34
2018-01-13T10:49:43.666Z,84.63
2018-01-13T10:50:43.655Z,83.97
2018-01-13T10:51:43.649Z,84.53
2018-01-13T10:52:43.637Z,85.10
2018-01-13T10:53:43.643Z,84.91
2018-01-13T10:54:43.616Z,84.91
2018-01-13T10:55:43.604Z,84.25
2018-01-13T10:56:43.595Z,84.44
2018-01-13T10:57:43.584Z,84.16
2018-01-13T10:58:43.574Z,84.63
2018-01-13T10:59:43.602Z,83.78
2018-01-13T11:00:43.555Z,84.25
2018-01-13T11:01:43.545Z,84.06
2018-01-13T11:02:43.536Z,84.34
2018-01-13T11:03:43.525Z,84.25
2018-01-13T11:04:43.513Z,84.63
2018-01-13T11:05:43.507Z,84.06
2018-01-13T11:06:43.495Z,84.72
2018-01-13T11:07:43.483Z,84.25
2018-01-13T11:08:43.476Z,83.21
2018-01-13T11:09:43.476Z,83.02
2018-01-13T11:10:43.452Z,83.02
2018-01-13T11:11:43.443Z,82.83
2018-01-13T11:12:43.438Z,83.40
2018-01-13T11:13:43.427Z,83.30
2018-01-13T11:14:43.412Z,83.40
2018-01-13T11:15:43.410Z,83.21
2018-01-13T11:16:43.390Z,83.21
2018-01-13T11:17:43.386Z,83.02
2018-01-13T11:18:43.375Z,82.73
2018-01-13T11:19:43.363Z,82.92
2018-01-13T11:20:43.350Z,83.40
2018-01-13T11:21:43.348Z,83.11
2018-01-13T11:22:43.335Z,83.02
2018-01-13T11:23:43.324Z,83.11
2018-01-13T11:24:43.317Z,82.45
2018-01-13T11:25:43.305Z,82.83
2018-01-13T11:26:43.306Z,83.49
2018-01-13T11:27:43.798Z,83.78
2018-01-13T11:28:43.274Z,83.59
2018-01-13T11:29:43.269Z,83.11
2018-01-13T11:30:43.254Z,83.40
2018-01-13T11:31:43.242Z,83.02
2018-01-13T11:32:43.264Z,83.49
2018-01-13T11:33:43.225Z,83.59
2018-01-13T11:34:43.215Z,83.40
2018-01-13T11:35:43.206Z,83.21
2018-01-13T11:36:43.194Z,83.11
2018-01-13T11:37:43.182Z,83.49
2018-01-13T11:38:43.185Z,83.97
2018-01-13T11:39:43.162Z,83.02
2018-01-13T11:40:43.152Z,83.11
2018-01-13T11:41:43.163Z,83.30
2018-01-13T11:42:43.132Z,83.11
2018-01-13T11:43:43.124Z,83.30
2018-01-13T11:44:43.114Z,83.11
2018-01-13T11:45:43.100Z,82.83
2018-01-13T11:46:43.093Z,82.54
2018-01-13T11:47:43.087Z,82.64
2018-01-13T11:48:43.073Z,81.98
2018-01-13T11:49:43.063Z,80.94
2018-01-13T11:50:43.156Z,81.13
2018-01-13T11:51:43.084Z,81.03
2018-01-13T11:52:43.319Z,81.41
2018-01-13T11:53:43.154Z,81.32
2018-01-13T11:54:43.028Z,81.88
2018-01-13T11:55:43.223Z,82.17
2018-01-13T11:56:43.118Z,82.35
2018-01-13T11:57:43.114Z,82.17
2018-01-13T11:58:43.085Z,81.51
2018-01-13T11:59:43.076Z,82.17
2018-01-13T12:00:42.996Z,81.32
2018-01-13T12:01:43.020Z,81.88
2018-01-13T12:02:42.929Z,82.07
2018-01-13T12:03:42.922Z,82.54
2018-01-13T12:04:42.912Z,82.17
2018-01-13T12:05:42.897Z,81.13
2018-01-13T12:06:42.892Z,81.22
2018-01-13T12:07:42.882Z,81.03
2018-01-13T12:08:42.872Z,81.13
2018-01-13T12:09:42.860Z,81.03
2018-01-13T12:10:42.853Z,81.32
2018-01-13T12:11:42.837Z,81.22
2018-01-13T12:12:42.830Z,81.60
2018-01-13T12:13:42.847Z,81.79
2018-01-13T12:14:42.810Z,81.79
2018-01-13T12:15:42.801Z,82.45
2018-01-13T12:16:42.791Z,82.26
2018-01-13T12:17:42.778Z,81.98
2018-01-13T12:18:42.771Z,81.98
2018-01-13T12:19:42.761Z,81.51
2018-01-13T12:20:42.750Z,81.22
2018-01-13T12:21:42.740Z,81.03
2018-01-13T12:22:42.734Z,80.46
2018-01-13T12:23:42.752Z,81.03
2018-01-13T12:24:42.709Z,80.75
2018-01-13T12:25:42.705Z,81.60
2018-01-13T12:26:42.691Z,81.60
2018-01-13T12:27:42.685Z,80.84
2018-01-13T12:28:42.702Z,80.94
2018-01-13T12:29:42.660Z,81.13
2018-01-13T12:30:42.652Z,80.94
2018-01-13T12:31:42.640Z,81.13
2018-01-13T12:32:42.629Z,80.94
2018-01-13T12:33:42.621Z,80.46
2018-01-13T12:34:42.620Z,80.56
2018-01-13T12:35:42.598Z,81.03
2018-01-13T12:36:42.587Z,81.13
2018-01-13T12:37:42.578Z,80.94
2018-01-13T12:38:42.573Z,81.03
2018-01-13T12:39:42.562Z,80.94
2018-01-13T12:40:42.569Z,80.18
2018-01-13T12:41:42.540Z,80.37
2018-01-13T12:42:42.526Z,80.37
2018-01-13T12:43:42.519Z,80.56
2018-01-13T12:44:42.508Z,80.37
2018-01-13T12:45:42.494Z,80.37
2018-01-13T12:46:42.487Z,80.27
2018-01-13T12:47:42.475Z,80.27
2018-01-13T12:48:42.464Z,80.65
2018-01-13T12:49:42.464Z,80.94
2018-01-13T12:50:42.443Z,80.94
2018-01-13T12:51:42.435Z,80.94
2018-01-13T12:52:42.423Z,80.84